sensor_id;sensor_type;location;lat;lon;timestamp;temperature;humidity
57390;DHT22;43217;52.694;6.214;2023-04-24T00:00:55;10.40;99.90
57390;DHT22;43217;52.694;6.214;2023-04-24T00:03:24;10.40;99.90
57390;DHT22;43217;52.694;6.214;2023-04-24T00:05:49;10.30;99.90
57390;DHT22;43217;52.694;6.214;2023-04-24T00:08:16;10.30;99.90
57390;DHT22;43217;52.694;6.214;2023-04-24T00:10:42;10.30;99.90
57390;DHT22;43217;52.694;6.214;2023-04-24T00:13:08;10.30;99.90
57390;DHT22;43217;52.694;6.214;2023-04-24T00:15:34;10.30;99.90
57390;DHT22;43217;52.694;6.214;2023-04-24T00:18:00;10.30;99.90
57390;DHT22;43217;52.694;6.214;2023-04-24T00:20:28;10.30;99.90
57390;DHT22;43217;52.694;6.214;2023-04-24T00:22:55;10.30;99.90
57390;DHT22;43217;52.694;6.214;2023-04-24T00:25:21;10.30;99.90
57390;DHT22;43217;52.694;6.214;2023-04-24T00:27:46;10.30;99.90
57390;DHT22;43217;52.694;6.214;2023-04-24T00:30:12;10.20;99.90
57390;DHT22;43217;52.694;6.214;2023-04-24T00:32:38;10.20;99.90
57390;DHT22;43217;52.694;6.214;2023-04-24T00:35:04;10.30;99.90
57390;DHT22;43217;52.694;6.214;2023-04-24T00:37:31;10.30;99.90
57390;DHT22;43217;52.694;6.214;2023-04-24T00:39:57;10.30;99.90
57390;DHT22;43217;52.694;6.214;2023-04-24T00:42:23;10.30;99.90
57390;DHT22;43217;52.694;6.214;2023-04-24T00:44:48;10.30;99.90
57390;DHT22;43217;52.694;6.214;2023-04-24T00:47:14;10.30;99.90
57390;DHT22;43217;52.694;6.214;2023-04-24T00:49:40;10.30;99.90
57390;DHT22;43217;52.694;6.214;2023-04-24T00:52:06;10.30;99.90
57390;DHT22;43217;52.694;6.214;2023-04-24T00:54:34;10.30;99.90
57390;DHT22;43217;52.694;6.214;2023-04-24T00:57:01;10.30;99.90
57390;DHT22;43217;52.694;6.214;2023-04-24T00:59:27;10.30;99.90
57390;DHT22;43217;52.694;6.214;2023-04-24T01:01:53;10.30;99.90
57390;DHT22;43217;52.694;6.214;2023-04-24T01:04:19;10.30;99.90
57390;DHT22;43217;52.694;6.214;2023-04-24T01:06:45;10.30;99.90
57390;DHT22;43217;52.694;6.214;2023-04-24T01:09:12;10.30;99.90
57390;DHT22;43217;52.694;6.214;2023-04-24T01:11:41;10.30;99.90
57390;DHT22;43217;52.694;6.214;2023-04-24T01:14:07;10.40;99.90
57390;DHT22;43217;52.694;6.214;2023-04-24T01:16:33;10.30;99.90
57390;DHT22;43217;52.694;6.214;2023-04-24T01:18:58;10.40;99.90
57390;DHT22;43217;52.694;6.214;2023-04-24T01:21:28;10.40;99.90
57390;DHT22;43217;52.694;6.214;2023-04-24T01:23:55;10.40;99.90
57390;DHT22;43217;52.694;6.214;2023-04-24T01:26:21;10.40;99.90
57390;DHT22;43217;52.694;6.214;2023-04-24T01:28:48;10.40;99.90
57390;DHT22;43217;52.694;6.214;2023-04-24T01:31:14;10.40;99.90
57390;DHT22;43217;52.694;6.214;2023-04-24T01:33:41;10.40;99.90
57390;DHT22;43217;52.694;6.214;2023-04-24T01:36:09;10.40;99.90
57390;DHT22;43217;52.694;6.214;2023-04-24T01:38:35;10.30;99.90
57390;DHT22;43217;52.694;6.214;2023-04-24T01:41:01;10.30;99.90
57390;DHT22;43217;52.694;6.214;2023-04-24T01:43:28;10.30;99.90
57390;DHT22;43217;52.694;6.214;2023-04-24T01:45:53;10.30;99.90
57390;DHT22;43217;52.694;6.214;2023-04-24T01:48:19;10.20;99.90
57390;DHT22;43217;52.694;6.214;2023-04-24T01:50:45;10.20;99.90
57390;DHT22;43217;52.694;6.214;2023-04-24T01:53:10;10.20;99.90
57390;DHT22;43217;52.694;6.214;2023-04-24T01:55:36;10.20;99.90
57390;DHT22;43217;52.694;6.214;2023-04-24T01:58:02;10.20;99.90
57390;DHT22;43217;52.694;6.214;2023-04-24T02:00:28;10.10;99.90
57390;DHT22;43217;52.694;6.214;2023-04-24T02:02:53;10.20;99.90
57390;DHT22;43217;52.694;6.214;2023-04-24T02:05:19;10.10;99.90
57390;DHT22;43217;52.694;6.214;2023-04-24T02:07:45;10.10;99.90
57390;DHT22;43217;52.694;6.214;2023-04-24T02:10:14;10.10;99.90
57390;DHT22;43217;52.694;6.214;2023-04-24T02:12:40;10.10;99.90
57390;DHT22;43217;52.694;6.214;2023-04-24T02:15:06;10.10;99.90
57390;DHT22;43217;52.694;6.214;2023-04-24T02:17:32;10.10;99.90
57390;DHT22;43217;52.694;6.214;2023-04-24T02:19:57;10.10;99.90
57390;DHT22;43217;52.694;6.214;2023-04-24T02:22:23;10.10;99.90
57390;DHT22;43217;52.694;6.214;2023-04-24T02:24:48;10.00;99.90
57390;DHT22;43217;52.694;6.214;2023-04-24T02:27:14;10.00;99.90
57390;DHT22;43217;52.694;6.214;2023-04-24T02:29:40;10.00;99.90
57390;DHT22;43217;52.694;6.214;2023-04-24T02:32:06;10.00;99.90
57390;DHT22;43217;52.694;6.214;2023-04-24T02:34:31;10.00;99.90
57390;DHT22;43217;52.694;6.214;2023-04-24T02:36:57;10.00;99.90
57390;DHT22;43217;52.694;6.214;2023-04-24T02:39:23;10.00;99.90
57390;DHT22;43217;52.694;6.214;2023-04-24T02:41:48;10.00;99.90
57390;DHT22;43217;52.694;6.214;2023-04-24T02:44:14;10.00;99.90
57390;DHT22;43217;52.694;6.214;2023-04-24T02:46:40;10.00;99.90
57390;DHT22;43217;52.694;6.214;2023-04-24T02:49:07;10.00;99.90
57390;DHT22;43217;52.694;6.214;2023-04-24T02:51:32;10.00;99.90
57390;DHT22;43217;52.694;6.214;2023-04-24T02:53:58;10.00;99.90
57390;DHT22;43217;52.694;6.214;2023-04-24T02:56:24;9.90;99.90
57390;DHT22;43217;52.694;6.214;2023-04-24T02:58:49;10.00;99.90
57390;DHT22;43217;52.694;6.214;2023-04-24T03:01:15;9.90;99.90
57390;DHT22;43217;52.694;6.214;2023-04-24T03:03:40;9.90;99.90
57390;DHT22;43217;52.694;6.214;2023-04-24T03:06:06;9.90;99.90
57390;DHT22;43217;52.694;6.214;2023-04-24T03:08:33;9.90;99.90
57390;DHT22;43217;52.694;6.214;2023-04-24T03:11:00;9.90;99.90
57390;DHT22;43217;52.694;6.214;2023-04-24T03:13:25;10.00;99.90
57390;DHT22;43217;52.694;6.214;2023-04-24T03:15:51;10.00;99.90
57390;DHT22;43217;52.694;6.214;2023-04-24T03:18:17;10.00;99.90
57390;DHT22;43217;52.694;6.214;2023-04-24T03:20:45;10.00;99.90
57390;DHT22;43217;52.694;6.214;2023-04-24T03:23:12;10.00;99.90
57390;DHT22;43217;52.694;6.214;2023-04-24T03:25:38;10.00;99.90
57390;DHT22;43217;52.694;6.214;2023-04-24T03:28:04;10.00;99.90
57390;DHT22;43217;52.694;6.214;2023-04-24T03:30:30;10.00;99.90
57390;DHT22;43217;52.694;6.214;2023-04-24T03:32:55;10.00;99.90
57390;DHT22;43217;52.694;6.214;2023-04-24T03:35:21;9.90;99.90
57390;DHT22;43217;52.694;6.214;2023-04-24T03:37:47;9.90;99.90
57390;DHT22;43217;52.694;6.214;2023-04-24T03:40:12;9.90;99.90
57390;DHT22;43217;52.694;6.214;2023-04-24T03:42:38;9.90;99.90
57390;DHT22;43217;52.694;6.214;2023-04-24T03:45:04;9.80;99.90
57390;DHT22;43217;52.694;6.214;2023-04-24T03:47:30;9.80;99.90
57390;DHT22;43217;52.694;6.214;2023-04-24T03:49:56;9.80;99.90
57390;DHT22;43217;52.694;6.214;2023-04-24T03:52:22;9.70;99.90
57390;DHT22;43217;52.694;6.214;2023-04-24T03:54:47;9.70;99.90
57390;DHT22;43217;52.694;6.214;2023-04-24T03:57:13;9.70;99.90
57390;DHT22;43217;52.694;6.214;2023-04-24T03:59:38;9.60;99.90
57390;DHT22;43217;52.694;6.214;2023-04-24T04:02:04;9.50;99.90
57390;DHT22;43217;52.694;6.214;2023-04-24T04:04:30;9.50;99.90
57390;DHT22;43217;52.694;6.214;2023-04-24T04:06:56;9.50;99.90
57390;DHT22;43217;52.694;6.214;2023-04-24T04:09:22;9.50;99.90
57390;DHT22;43217;52.694;6.214;2023-04-24T04:11:47;9.40;99.90
57390;DHT22;43217;52.694;6.214;2023-04-24T04:14:13;9.50;99.90
57390;DHT22;43217;52.694;6.214;2023-04-24T04:16:40;9.40;99.90
57390;DHT22;43217;52.694;6.214;2023-04-24T04:19:05;9.40;99.90
57390;DHT22;43217;52.694;6.214;2023-04-24T04:21:31;9.40;99.90
57390;DHT22;43217;52.694;6.214;2023-04-24T04:23:57;9.40;99.90
57390;DHT22;43217;52.694;6.214;2023-04-24T04:26:23;9.40;99.90
57390;DHT22;43217;52.694;6.214;2023-04-24T04:28:52;9.40;99.90
57390;DHT22;43217;52.694;6.214;2023-04-24T04:31:19;9.40;99.90
57390;DHT22;43217;52.694;6.214;2023-04-24T04:33:45;9.50;99.90
57390;DHT22;43217;52.694;6.214;2023-04-24T04:36:11;9.50;99.90
57390;DHT22;43217;52.694;6.214;2023-04-24T04:38:37;9.50;99.90
57390;DHT22;43217;52.694;6.214;2023-04-24T04:41:03;9.60;99.90
57390;DHT22;43217;52.694;6.214;2023-04-24T04:43:29;9.70;99.90
57390;DHT22;43217;52.694;6.214;2023-04-24T04:45:57;9.70;99.90
57390;DHT22;43217;52.694;6.214;2023-04-24T04:48:23;9.80;99.90
57390;DHT22;43217;52.694;6.214;2023-04-24T04:50:48;9.90;99.90
57390;DHT22;43217;52.694;6.214;2023-04-24T04:53:14;9.90;99.90
57390;DHT22;43217;52.694;6.214;2023-04-24T04:55:39;10.00;99.90
57390;DHT22;43217;52.694;6.214;2023-04-24T04:58:05;10.00;99.90
57390;DHT22;43217;52.694;6.214;2023-04-24T05:00:31;10.10;99.90
57390;DHT22;43217;52.694;6.214;2023-04-24T05:03:01;10.10;99.90
57390;DHT22;43217;52.694;6.214;2023-04-24T05:05:27;10.10;99.90
57390;DHT22;43217;52.694;6.214;2023-04-24T05:07:56;10.20;99.90
57390;DHT22;43217;52.694;6.214;2023-04-24T05:10:22;10.20;99.90
57390;DHT22;43217;52.694;6.214;2023-04-24T05:12:48;10.20;99.90
57390;DHT22;43217;52.694;6.214;2023-04-24T05:15:15;10.20;99.90
57390;DHT22;43217;52.694;6.214;2023-04-24T05:17:40;10.20;99.90
57390;DHT22;43217;52.694;6.214;2023-04-24T05:20:07;10.20;99.90
57390;DHT22;43217;52.694;6.214;2023-04-24T05:22:32;10.20;99.90
57390;DHT22;43217;52.694;6.214;2023-04-24T05:25:01;10.20;99.90
57390;DHT22;43217;52.694;6.214;2023-04-24T05:27:28;10.20;99.90
57390;DHT22;43217;52.694;6.214;2023-04-24T05:29:58;10.20;99.90
57390;DHT22;43217;52.694;6.214;2023-04-24T05:32:27;10.20;99.90
57390;DHT22;43217;52.694;6.214;2023-04-24T05:34:53;10.20;99.90
57390;DHT22;43217;52.694;6.214;2023-04-24T05:37:20;10.20;99.90
57390;DHT22;43217;52.694;6.214;2023-04-24T05:39:45;10.20;99.90
57390;DHT22;43217;52.694;6.214;2023-04-24T05:42:11;10.30;99.90
57390;DHT22;43217;52.694;6.214;2023-04-24T05:44:36;10.20;99.90
57390;DHT22;43217;52.694;6.214;2023-04-24T05:47:02;10.20;99.90
57390;DHT22;43217;52.694;6.214;2023-04-24T05:49:28;10.20;99.90
57390;DHT22;43217;52.694;6.214;2023-04-24T05:51:53;10.20;99.90
57390;DHT22;43217;52.694;6.214;2023-04-24T05:54:19;10.20;99.90
57390;DHT22;43217;52.694;6.214;2023-04-24T05:56:45;10.20;99.90
57390;DHT22;43217;52.694;6.214;2023-04-24T05:59:10;10.20;99.90
57390;DHT22;43217;52.694;6.214;2023-04-24T06:01:36;10.20;99.90
57390;DHT22;43217;52.694;6.214;2023-04-24T06:04:03;10.20;99.90
57390;DHT22;43217;52.694;6.214;2023-04-24T06:06:29;10.20;99.90
57390;DHT22;43217;52.694;6.214;2023-04-24T06:08:55;10.20;99.90
57390;DHT22;43217;52.694;6.214;2023-04-24T06:11:21;10.20;99.90
57390;DHT22;43217;52.694;6.214;2023-04-24T06:13:46;10.10;99.90
57390;DHT22;43217;52.694;6.214;2023-04-24T06:16:12;10.20;99.90
57390;DHT22;43217;52.694;6.214;2023-04-24T06:18:38;10.20;99.90
57390;DHT22;43217;52.694;6.214;2023-04-24T06:21:04;10.10;99.90
57390;DHT22;43217;52.694;6.214;2023-04-24T06:23:34;10.20;99.90
57390;DHT22;43217;52.694;6.214;2023-04-24T06:26:07;10.10;99.90
57390;DHT22;43217;52.694;6.214;2023-04-24T06:28:33;10.10;99.90
57390;DHT22;43217;52.694;6.214;2023-04-24T06:31:05;10.10;99.90
57390;DHT22;43217;52.694;6.214;2023-04-24T06:33:30;10.10;99.90
57390;DHT22;43217;52.694;6.214;2023-04-24T06:35:56;10.10;99.90
57390;DHT22;43217;52.694;6.214;2023-04-24T06:38:22;10.10;99.90
57390;DHT22;43217;52.694;6.214;2023-04-24T06:40:47;10.10;99.90
57390;DHT22;43217;52.694;6.214;2023-04-24T06:43:13;10.10;99.90
57390;DHT22;43217;52.694;6.214;2023-04-24T06:45:43;10.10;99.90
57390;DHT22;43217;52.694;6.214;2023-04-24T06:48:09;10.00;99.90
57390;DHT22;43217;52.694;6.214;2023-04-24T06:50:38;10.00;99.90
57390;DHT22;43217;52.694;6.214;2023-04-24T06:53:04;10.00;99.90
57390;DHT22;43217;52.694;6.214;2023-04-24T06:55:29;10.00;99.90
57390;DHT22;43217;52.694;6.214;2023-04-24T06:57:55;10.00;99.90
57390;DHT22;43217;52.694;6.214;2023-04-24T07:00:21;10.10;99.90
57390;DHT22;43217;52.694;6.214;2023-04-24T07:02:46;10.10;99.90
57390;DHT22;43217;52.694;6.214;2023-04-24T07:05:12;10.10;99.90
57390;DHT22;43217;52.694;6.214;2023-04-24T07:10:44;10.10;99.90
57390;DHT22;43217;52.694;6.214;2023-04-24T07:13:15;10.10;99.90
57390;DHT22;43217;52.694;6.214;2023-04-24T07:15:41;10.10;99.90
57390;DHT22;43217;52.694;6.214;2023-04-24T07:18:07;10.10;99.90
57390;DHT22;43217;52.694;6.214;2023-04-24T07:20:32;10.00;99.90
57390;DHT22;43217;52.694;6.214;2023-04-24T07:22:58;10.00;99.90
57390;DHT22;43217;52.694;6.214;2023-04-24T07:25:24;10.00;99.90
57390;DHT22;43217;52.694;6.214;2023-04-24T07:27:49;10.00;99.90
57390;DHT22;43217;52.694;6.214;2023-04-24T07:30:15;10.10;99.90
57390;DHT22;43217;52.694;6.214;2023-04-24T07:32:41;10.00;99.90
57390;DHT22;43217;52.694;6.214;2023-04-24T07:35:06;10.00;99.90
57390;DHT22;43217;52.694;6.214;2023-04-24T07:37:32;10.10;99.90
57390;DHT22;43217;52.694;6.214;2023-04-24T07:39:58;10.10;99.90
57390;DHT22;43217;52.694;6.214;2023-04-24T07:42:23;10.10;99.90
57390;DHT22;43217;52.694;6.214;2023-04-24T07:44:49;10.10;99.90
57390;DHT22;43217;52.694;6.214;2023-04-24T07:47:16;10.10;99.90
57390;DHT22;43217;52.694;6.214;2023-04-24T07:49:42;10.00;99.90
57390;DHT22;43217;52.694;6.214;2023-04-24T07:52:08;10.00;99.90
57390;DHT22;43217;52.694;6.214;2023-04-24T07:54:33;10.00;99.90
57390;DHT22;43217;52.694;6.214;2023-04-24T07:56:59;10.00;99.90
57390;DHT22;43217;52.694;6.214;2023-04-24T07:59:31;10.00;99.90
57390;DHT22;43217;52.694;6.214;2023-04-24T08:01:56;10.00;99.90
57390;DHT22;43217;52.694;6.214;2023-04-24T08:04:22;9.90;99.90
57390;DHT22;43217;52.694;6.214;2023-04-24T08:06:48;9.90;99.90
57390;DHT22;43217;52.694;6.214;2023-04-24T08:09:13;9.90;99.90
57390;DHT22;43217;52.694;6.214;2023-04-24T08:11:39;9.90;99.90
57390;DHT22;43217;52.694;6.214;2023-04-24T08:14:04;9.80;99.90
57390;DHT22;43217;52.694;6.214;2023-04-24T08:16:32;9.80;99.90
57390;DHT22;43217;52.694;6.214;2023-04-24T08:18:58;9.80;99.90
57390;DHT22;43217;52.694;6.214;2023-04-24T08:21:24;9.80;99.90
57390;DHT22;43217;52.694;6.214;2023-04-24T08:23:50;9.80;99.90
57390;DHT22;43217;52.694;6.214;2023-04-24T08:26:17;9.70;99.90
57390;DHT22;43217;52.694;6.214;2023-04-24T08:28:43;9.70;99.90
57390;DHT22;43217;52.694;6.214;2023-04-24T08:31:09;9.60;99.90
57390;DHT22;43217;52.694;6.214;2023-04-24T08:33:37;9.60;99.90
57390;DHT22;43217;52.694;6.214;2023-04-24T08:36:03;9.50;99.90
57390;DHT22;43217;52.694;6.214;2023-04-24T08:38:29;9.50;99.90
57390;DHT22;43217;52.694;6.214;2023-04-24T08:40:57;9.50;99.90
57390;DHT22;43217;52.694;6.214;2023-04-24T08:43:23;9.50;99.90
57390;DHT22;43217;52.694;6.214;2023-04-24T08:45:50;9.50;99.90
57390;DHT22;43217;52.694;6.214;2023-04-24T08:48:16;9.50;99.90
57390;DHT22;43217;52.694;6.214;2023-04-24T08:50:43;9.50;99.90
57390;DHT22;43217;52.694;6.214;2023-04-24T08:53:10;9.50;99.90
57390;DHT22;43217;52.694;6.214;2023-04-24T08:55:36;9.50;99.90
57390;DHT22;43217;52.694;6.214;2023-04-24T08:58:02;9.60;99.90
57390;DHT22;43217;52.694;6.214;2023-04-24T09:00:29;9.60;99.90
57390;DHT22;43217;52.694;6.214;2023-04-24T09:02:55;9.60;99.90
57390;DHT22;43217;52.694;6.214;2023-04-24T09:05:22;9.60;99.90
57390;DHT22;43217;52.694;6.214;2023-04-24T09:07:56;9.70;99.90
57390;DHT22;43217;52.694;6.214;2023-04-24T09:10:23;9.70;99.90
57390;DHT22;43217;52.694;6.214;2023-04-24T09:12:50;9.70;99.90
57390;DHT22;43217;52.694;6.214;2023-04-24T09:15:17;9.80;99.90
57390;DHT22;43217;52.694;6.214;2023-04-24T09:17:43;9.90;99.90
57390;DHT22;43217;52.694;6.214;2023-04-24T09:20:09;10.00;99.90
57390;DHT22;43217;52.694;6.214;2023-04-24T09:22:38;10.00;99.90
57390;DHT22;43217;52.694;6.214;2023-04-24T09:25:06;10.10;99.90
57390;DHT22;43217;52.694;6.214;2023-04-24T09:27:35;10.10;99.90
57390;DHT22;43217;52.694;6.214;2023-04-24T09:30:02;10.10;99.90
57390;DHT22;43217;52.694;6.214;2023-04-24T09:32:28;10.20;99.90
57390;DHT22;43217;52.694;6.214;2023-04-24T09:35:15;10.20;99.90
57390;DHT22;43217;52.694;6.214;2023-04-24T09:37:46;10.20;99.90
57390;DHT22;43217;52.694;6.214;2023-04-24T09:40:20;10.10;99.90
57390;DHT22;43217;52.694;6.214;2023-04-24T09:42:56;10.20;99.90
57390;DHT22;43217;52.694;6.214;2023-04-24T09:45:37;10.20;99.90
57390;DHT22;43217;52.694;6.214;2023-04-24T09:48:03;10.20;99.90
57390;DHT22;43217;52.694;6.214;2023-04-24T09:50:30;10.20;99.90
57390;DHT22;43217;52.694;6.214;2023-04-24T09:52:59;10.20;99.90
57390;DHT22;43217;52.694;6.214;2023-04-24T09:55:27;10.20;99.90
57390;DHT22;43217;52.694;6.214;2023-04-24T09:57:56;10.10;99.90
57390;DHT22;43217;52.694;6.214;2023-04-24T10:00:30;10.00;99.90
57390;DHT22;43217;52.694;6.214;2023-04-24T10:03:02;9.90;99.90
57390;DHT22;43217;52.694;6.214;2023-04-24T10:05:33;9.80;99.90
57390;DHT22;43217;52.694;6.214;2023-04-24T10:08:08;9.70;99.90
57390;DHT22;43217;52.694;6.214;2023-04-24T10:10:38;9.60;99.90
57390;DHT22;43217;52.694;6.214;2023-04-24T10:13:04;9.50;99.90
57390;DHT22;43217;52.694;6.214;2023-04-24T10:15:30;9.50;99.90
57390;DHT22;43217;52.694;6.214;2023-04-24T10:17:57;9.50;99.90
57390;DHT22;43217;52.694;6.214;2023-04-24T10:20:24;9.50;99.90
57390;DHT22;43217;52.694;6.214;2023-04-24T10:22:53;9.50;99.90
57390;DHT22;43217;52.694;6.214;2023-04-24T10:25:39;9.50;99.90
57390;DHT22;43217;52.694;6.214;2023-04-24T10:28:05;9.60;99.90
57390;DHT22;43217;52.694;6.214;2023-04-24T10:30:35;9.60;99.90
57390;DHT22;43217;52.694;6.214;2023-04-24T10:33:05;9.70;99.90
57390;DHT22;43217;52.694;6.214;2023-04-24T10:35:34;9.70;99.90
57390;DHT22;43217;52.694;6.214;2023-04-24T10:38:07;9.80;99.90
57390;DHT22;43217;52.694;6.214;2023-04-24T10:40:35;9.90;99.90
57390;DHT22;43217;52.694;6.214;2023-04-24T10:43:06;9.90;99.90
57390;DHT22;43217;52.694;6.214;2023-04-24T10:45:34;10.10;99.90
57390;DHT22;43217;52.694;6.214;2023-04-24T10:48:05;10.20;99.90
57390;DHT22;43217;52.694;6.214;2023-04-24T10:53:18;10.40;99.90
57390;DHT22;43217;52.694;6.214;2023-04-24T10:55:47;10.50;99.90
57390;DHT22;43217;52.694;6.214;2023-04-24T10:58:13;10.60;99.90
57390;DHT22;43217;52.694;6.214;2023-04-24T11:00:41;10.60;99.90
57390;DHT22;43217;52.694;6.214;2023-04-24T11:03:26;10.70;99.90
57390;DHT22;43217;52.694;6.214;2023-04-24T11:05:57;10.70;99.90
57390;DHT22;43217;52.694;6.214;2023-04-24T11:10:56;10.70;99.90
57390;DHT22;43217;52.694;6.214;2023-04-24T11:13:27;10.80;99.90
57390;DHT22;43217;52.694;6.214;2023-04-24T11:16:13;10.80;99.90
57390;DHT22;43217;52.694;6.214;2023-04-24T11:18:39;10.80;99.90
57390;DHT22;43217;52.694;6.214;2023-04-24T11:21:18;10.70;99.90
57390;DHT22;43217;52.694;6.214;2023-04-24T11:23:45;10.70;99.90
57390;DHT22;43217;52.694;6.214;2023-04-24T11:26:12;10.70;99.90
57390;DHT22;43217;52.694;6.214;2023-04-24T11:28:45;10.60;99.90
57390;DHT22;43217;52.694;6.214;2023-04-24T11:31:44;10.60;99.90
57390;DHT22;43217;52.694;6.214;2023-04-24T11:34:14;10.50;99.90
57390;DHT22;43217;52.694;6.214;2023-04-24T11:36:46;10.40;99.90
57390;DHT22;43217;52.694;6.214;2023-04-24T11:39:15;10.40;99.90
57390;DHT22;43217;52.694;6.214;2023-04-24T11:41:41;10.30;99.90
57390;DHT22;43217;52.694;6.214;2023-04-24T11:44:08;10.20;99.90
57390;DHT22;43217;52.694;6.214;2023-04-24T11:46:34;10.20;99.90
57390;DHT22;43217;52.694;6.214;2023-04-24T11:49:00;10.10;99.90
57390;DHT22;43217;52.694;6.214;2023-04-24T11:51:27;10.10;99.90
57390;DHT22;43217;52.694;6.214;2023-04-24T11:53:53;10.10;99.90
57390;DHT22;43217;52.694;6.214;2023-04-24T11:56:21;10.20;99.90
57390;DHT22;43217;52.694;6.214;2023-04-24T11:58:47;10.20;99.90
57390;DHT22;43217;52.694;6.214;2023-04-24T12:01:13;10.10;99.90
57390;DHT22;43217;52.694;6.214;2023-04-24T12:03:39;10.10;99.90
57390;DHT22;43217;52.694;6.214;2023-04-24T12:06:10;10.20;99.90
57390;DHT22;43217;52.694;6.214;2023-04-24T12:08:36;10.30;99.90
57390;DHT22;43217;52.694;6.214;2023-04-24T12:11:06;10.30;99.90
57390;DHT22;43217;52.694;6.214;2023-04-24T12:13:35;10.50;99.90
57390;DHT22;43217;52.694;6.214;2023-04-24T12:16:05;10.70;99.90
57390;DHT22;43217;52.694;6.214;2023-04-24T12:18:31;10.80;99.90
57390;DHT22;43217;52.694;6.214;2023-04-24T12:21:21;10.80;99.90
57390;DHT22;43217;52.694;6.214;2023-04-24T12:23:48;10.80;99.90
57390;DHT22;43217;52.694;6.214;2023-04-24T12:26:18;10.70;99.90
57390;DHT22;43217;52.694;6.214;2023-04-24T12:28:49;10.70;99.90
57390;DHT22;43217;52.694;6.214;2023-04-24T12:31:16;10.60;99.90
57390;DHT22;43217;52.694;6.214;2023-04-24T12:33:42;10.50;99.90
57390;DHT22;43217;52.694;6.214;2023-04-24T12:36:12;10.40;99.90
57390;DHT22;43217;52.694;6.214;2023-04-24T12:38:38;10.40;99.90
57390;DHT22;43217;52.694;6.214;2023-04-24T12:41:15;10.30;99.90
57390;DHT22;43217;52.694;6.214;2023-04-24T12:43:53;10.30;99.90
57390;DHT22;43217;52.694;6.214;2023-04-24T12:46:21;10.30;99.90
57390;DHT22;43217;52.694;6.214;2023-04-24T12:48:47;10.30;99.90
57390;DHT22;43217;52.694;6.214;2023-04-24T12:51:12;10.30;99.90
57390;DHT22;43217;52.694;6.214;2023-04-24T12:53:38;10.30;99.90
57390;DHT22;43217;52.694;6.214;2023-04-24T12:56:04;10.30;99.90
57390;DHT22;43217;52.694;6.214;2023-04-24T12:58:30;10.30;99.90
57390;DHT22;43217;52.694;6.214;2023-04-24T13:00:55;10.30;99.90
57390;DHT22;43217;52.694;6.214;2023-04-24T13:03:21;10.30;99.90
57390;DHT22;43217;52.694;6.214;2023-04-24T13:05:47;10.30;99.90
57390;DHT22;43217;52.694;6.214;2023-04-24T13:08:13;10.30;99.90
57390;DHT22;43217;52.694;6.214;2023-04-24T13:10:39;10.40;99.90
57390;DHT22;43217;52.694;6.214;2023-04-24T13:13:05;10.50;99.90
57390;DHT22;43217;52.694;6.214;2023-04-24T13:15:31;10.40;99.90
57390;DHT22;43217;52.694;6.214;2023-04-24T13:17:56;10.40;99.90
57390;DHT22;43217;52.694;6.214;2023-04-24T13:20:22;10.40;99.90
57390;DHT22;43217;52.694;6.214;2023-04-24T13:22:48;10.40;99.90
57390;DHT22;43217;52.694;6.214;2023-04-24T13:25:13;10.40;99.90
57390;DHT22;43217;52.694;6.214;2023-04-24T13:27:42;10.30;99.90
57390;DHT22;43217;52.694;6.214;2023-04-24T13:30:08;10.30;99.90
57390;DHT22;43217;52.694;6.214;2023-04-24T13:32:34;10.40;99.90
57390;DHT22;43217;52.694;6.214;2023-04-24T13:35:00;10.40;99.90
57390;DHT22;43217;52.694;6.214;2023-04-24T13:37:26;10.40;99.90
57390;DHT22;43217;52.694;6.214;2023-04-24T13:39:51;10.40;99.90
57390;DHT22;43217;52.694;6.214;2023-04-24T13:42:17;10.40;99.90
57390;DHT22;43217;52.694;6.214;2023-04-24T13:44:44;10.20;99.90
57390;DHT22;43217;52.694;6.214;2023-04-24T13:47:11;10.10;99.90
57390;DHT22;43217;52.694;6.214;2023-04-24T13:49:36;10.10;99.90
57390;DHT22;43217;52.694;6.214;2023-04-24T13:52:02;10.00;99.90
57390;DHT22;43217;52.694;6.214;2023-04-24T13:54:28;10.00;99.90
57390;DHT22;43217;52.694;6.214;2023-04-24T13:56:57;10.00;99.90
57390;DHT22;43217;52.694;6.214;2023-04-24T13:59:23;9.90;99.90
57390;DHT22;43217;52.694;6.214;2023-04-24T14:01:49;10.00;99.90
57390;DHT22;43217;52.694;6.214;2023-04-24T14:04:15;9.90;99.90
57390;DHT22;43217;52.694;6.214;2023-04-24T14:06:41;9.80;99.90
57390;DHT22;43217;52.694;6.214;2023-04-24T14:09:06;9.60;99.90
57390;DHT22;43217;52.694;6.214;2023-04-24T14:11:33;9.40;99.90
57390;DHT22;43217;52.694;6.214;2023-04-24T14:13:59;9.40;99.90
57390;DHT22;43217;52.694;6.214;2023-04-24T14:16:25;9.30;99.90
57390;DHT22;43217;52.694;6.214;2023-04-24T14:18:50;9.30;99.90
57390;DHT22;43217;52.694;6.214;2023-04-24T14:21:16;9.20;99.90
57390;DHT22;43217;52.694;6.214;2023-04-24T14:23:41;9.20;99.90
57390;DHT22;43217;52.694;6.214;2023-04-24T14:26:07;9.20;99.90
57390;DHT22;43217;52.694;6.214;2023-04-24T14:28:33;9.20;99.90
57390;DHT22;43217;52.694;6.214;2023-04-24T14:30:59;9.20;99.90
57390;DHT22;43217;52.694;6.214;2023-04-24T14:33:25;9.20;99.90
57390;DHT22;43217;52.694;6.214;2023-04-24T14:35:51;9.30;99.90
57390;DHT22;43217;52.694;6.214;2023-04-24T14:38:16;9.40;99.90
57390;DHT22;43217;52.694;6.214;2023-04-24T14:40:42;9.50;99.90
57390;DHT22;43217;52.694;6.214;2023-04-24T14:43:08;9.70;99.90
57390;DHT22;43217;52.694;6.214;2023-04-24T14:45:33;9.70;99.90
57390;DHT22;43217;52.694;6.214;2023-04-24T14:47:59;9.80;99.90
57390;DHT22;43217;52.694;6.214;2023-04-24T14:50:25;9.70;99.90
57390;DHT22;43217;52.694;6.214;2023-04-24T14:52:54;9.70;99.90
57390;DHT22;43217;52.694;6.214;2023-04-24T14:55:22;9.70;99.90
57390;DHT22;43217;52.694;6.214;2023-04-24T14:57:48;9.70;99.90
57390;DHT22;43217;52.694;6.214;2023-04-24T15:00:14;9.80;99.90
57390;DHT22;43217;52.694;6.214;2023-04-24T15:02:42;9.80;99.90
57390;DHT22;43217;52.694;6.214;2023-04-24T15:05:10;9.90;99.90
57390;DHT22;43217;52.694;6.214;2023-04-24T15:07:35;9.90;99.90
57390;DHT22;43217;52.694;6.214;2023-04-24T15:10:02;9.90;99.90
57390;DHT22;43217;52.694;6.214;2023-04-24T15:12:28;10.00;99.90
57390;DHT22;43217;52.694;6.214;2023-04-24T15:14:54;10.00;99.90
57390;DHT22;43217;52.694;6.214;2023-04-24T15:17:20;10.00;99.90
57390;DHT22;43217;52.694;6.214;2023-04-24T15:19:46;10.10;99.90
57390;DHT22;43217;52.694;6.214;2023-04-24T15:22:13;10.00;99.90
57390;DHT22;43217;52.694;6.214;2023-04-24T15:24:38;9.90;99.90
57390;DHT22;43217;52.694;6.214;2023-04-24T15:27:04;9.90;99.90
57390;DHT22;43217;52.694;6.214;2023-04-24T15:29:30;9.90;99.90
57390;DHT22;43217;52.694;6.214;2023-04-24T15:31:55;9.90;99.90
57390;DHT22;43217;52.694;6.214;2023-04-24T15:34:21;10.00;99.90
57390;DHT22;43217;52.694;6.214;2023-04-24T15:36:48;9.90;99.90
57390;DHT22;43217;52.694;6.214;2023-04-24T15:39:14;10.00;99.90
57390;DHT22;43217;52.694;6.214;2023-04-24T15:41:39;10.10;99.90